Time;durP1;ratioP1;P1;durP2;ratioP2;P2;SDS_P1;SDS_P2;PMS_P1;PMS_P2;Temp;Humidity;BMP_temperature;BMP_pressure;BME280_temperature;BME280_humidity;BME280_pressure;Samples;Min_cycle;Max_cycle;Signal;HPM_P1;HPM_P2
2022/05/27 00:00:41;;;;;;;;;2.00;2.00;;;;;;;;5078677;28;8806;-83
2022/05/27 00:03:08;;;;;;;;;4.50;2.25;;;;;;;;5075001;28;8866;-80
2022/05/27 00:05:35;;;;;;;;;1.50;1.50;;;;;;;;5073226;28;8909;-81
2022/05/27 00:08:03;;;;;;;;;1.25;1.25;;;;;;;;5074348;28;8874;-81
2022/05/27 00:10:31;;;;;;;;;3.50;2.50;;;;;;;;5053545;28;8897;-81
2022/05/27 00:12:59;;;;;;;;;2.00;2.00;;;;;;;;5072329;28;9660;-81
2022/05/27 00:15:27;;;;;;;;;2.75;1.75;;;;;;;;5072279;28;8902;-81
2022/05/27 00:17:55;;;;;;;;;2.50;1.25;;;;;;;;5073533;28;8862;-82
2022/05/27 00:20:23;;;;;;;;;2.00;2.00;;;;;;;;5071275;28;8877;-81
2022/05/27 00:22:50;;;;;;;;;4.75;4.00;;;;;;;;5077238;28;8877;-81
2022/05/27 00:25:19;;;;;;;;;2.25;2.25;;;;;;;;5072600;28;8871;-81
2022/05/27 00:27:46;;;;;;;;;4.00;2.00;;;;;;;;5073996;28;8858;-81
2022/05/27 00:30:14;;;;;;;;;5.50;4.00;;;;;;;;5074799;28;8870;-81
2022/05/27 00:32:42;;;;;;;;;1.75;1.75;;;;;;;;5054473;28;8866;-81
2022/05/27 00:35:11;;;;;;;;;4.00;2.25;;;;;;;;5072655;28;8913;-81
2022/05/27 00:37:39;;;;;;;;;3.00;3.00;;;;;;;;5054935;28;8935;-81
2022/05/27 00:40:08;;;;;;;;;4.00;4.00;;;;;;;;5054754;28;8847;-81
2022/05/27 00:42:38;;;;;;;;;2.50;2.50;;;;;;;;5074144;28;9778;-81
2022/05/27 00:45:06;;;;;;;;;5.50;3.00;;;;;;;;5065584;28;9645;-81
2022/05/27 00:47:36;;;;;;;;;3.25;3.25;;;;;;;;5042941;28;8868;-80
2022/05/27 00:50:06;;;;;;;;;5.75;4.50;;;;;;;;5038167;28;8856;-81
2022/05/27 00:52:37;;;;;;;;;3.00;3.00;;;;;;;;5051328;28;8868;-81
2022/05/27 00:55:09;;;;;;;;;6.50;4.75;;;;;;;;5058928;28;9585;-81
2022/05/27 00:57:41;;;;;;;;;5.75;5.75;;;;;;;;5036625;28;8873;-80
2022/05/27 01:00:12;;;;;;;;;9.00;6.00;;;;;;;;5056730;28;8852;-81
2022/05/27 01:02:39;;;;;;;;;1.75;1.75;;;;;;;;5053586;28;8900;-81
2022/05/27 01:05:09;;;;;;;;;6.00;6.00;;;;;;;;5059622;28;8858;-81
2022/05/27 01:07:38;;;;;;;;;6.00;4.00;;;;;;;;5059242;28;8866;-81
2022/05/27 01:10:08;;;;;;;;;7.00;5.00;;;;;;;;5037035;28;8869;-81
2022/05/27 01:13:02;;;;;;;;;4.00;4.00;;;;;;;;5052036;28;8873;-81
2022/05/27 01:15:40;;;;;;;;;4.00;2.75;;;;;;;;5051805;28;8880;-81
2022/05/27 01:20:18;;;;;;;;;6.25;6.25;;;;;;;;5057562;28;8864;-81
2022/05/27 01:21:22;;;;;;;;;6.00;6.00;;;;;;;;5039936;28;8836;-81
2022/05/27 01:24:06;;;;;;;;;4.25;4.25;;;;;;;;5037447;28;8908;-80
2022/05/27 01:27:03;;;;;;;;;5.75;5.75;;;;;;;;5062548;28;11642;-81
2022/05/27 01:30:08;;;;;;;;;7.50;6.00;;;;;;;;5046697;28;8850;-81
2022/05/27 01:32:41;;;;;;;;;5.25;5.00;;;;;;;;5002146;28;8859;-81
2022/05/27 01:35:16;;;;;;;;;6.25;5.75;;;;;;;;5051129;28;8862;-82
2022/05/27 01:37:49;;;;;;;;;6.25;6.25;;;;;;;;5032521;28;8884;-81
2022/05/27 01:40:25;;;;;;;;;6.75;6.50;;;;;;;;5052664;28;8886;-81
2022/05/27 01:42:58;;;;;;;;;5.00;5.00;;;;;;;;5055813;28;8874;-80
2022/05/27 01:45:30;;;;;;;;;6.25;5.75;;;;;;;;5052026;28;8850;-81
2022/05/27 01:48:03;;;;;;;;;6.50;6.50;;;;;;;;5049863;28;9034;-81
2022/05/27 01:50:35;;;;;;;;;8.00;5.75;;;;;;;;5062210;28;8869;-81
2022/05/27 01:53:08;;;;;;;;;8.25;6.75;;;;;;;;5053428;28;9690;-80
2022/05/27 01:55:40;;;;;;;;;6.50;6.50;;;;;;;;5053043;28;8896;-81
2022/05/27 01:58:12;;;;;;;;;9.00;4.75;;;;;;;;5058530;28;8870;-82
2022/05/27 02:00:40;;;;;;;;;5.75;4.00;;;;;;;;5032375;28;8794;-83
2022/05/27 02:03:13;;;;;;;;;8.25;5.00;;;;;;;;5057460;28;8892;-82
2022/05/27 02:05:45;;;;;;;;;5.25;5.00;;;;;;;;5057576;28;8914;-82
2022/05/27 02:08:17;;;;;;;;;5.00;4.00;;;;;;;;5055798;28;8873;-81
2022/05/27 02:10:50;;;;;;;;;6.00;6.00;;;;;;;;5057849;28;8850;-81
2022/05/27 02:13:22;;;;;;;;;8.25;7.00;;;;;;;;5050988;28;8939;-81
2022/05/27 02:15:51;;;;;;;;;11.25;10.50;;;;;;;;5057873;28;8927;-82
2022/05/27 02:18:23;;;;;;;;;7.25;7.25;;;;;;;;5061350;28;8862;-81
2022/05/27 02:20:54;;;;;;;;;8.25;8.25;;;;;;;;5048222;28;8891;-81
2022/05/27 02:23:28;;;;;;;;;10.50;8.75;;;;;;;;5050219;28;8885;-82
2022/05/27 02:25:56;;;;;;;;;6.25;6.25;;;;;;;;5048965;28;8874;-81
2022/05/27 02:28:28;;;;;;;;;8.00;6.50;;;;;;;;5051905;28;8894;-82
2022/05/27 02:30:58;;;;;;;;;7.50;6.25;;;;;;;;5049662;28;8841;-81
2022/05/27 02:36:20;;;;;;;;;10.50;8.25;;;;;;;;5053020;28;8830;-81
2022/05/27 02:38:48;;;;;;;;;10.25;7.25;;;;;;;;5032346;28;8854;-81
2022/05/27 02:41:21;;;;;;;;;9.25;8.50;;;;;;;;5052613;28;8885;-81
2022/05/27 02:44:00;;;;;;;;;9.50;7.25;;;;;;;;5053640;28;8868;-81
2022/05/27 02:46:37;;;;;;;;;9.00;7.00;;;;;;;;5076050;28;9697;-81
2022/05/27 02:49:13;;;;;;;;;10.25;8.00;;;;;;;;5074406;28;8850;-81
2022/05/27 02:51:47;;;;;;;;;8.00;8.00;;;;;;;;5048651;28;8864;-82
2022/05/27 02:54:23;;;;;;;;;9.00;8.25;;;;;;;;5079947;28;8870;-80
2022/05/27 02:56:53;;;;;;;;;6.75;6.75;;;;;;;;5073679;28;9320;-81
2022/05/27 02:59:21;;;;;;;;;7.00;7.00;;;;;;;;5064629;28;8884;-81
2022/05/27 03:01:48;;;;;;;;;6.00;6.00;;;;;;;;5073628;28;9281;-81
2022/05/27 03:04:19;;;;;;;;;5.50;5.50;;;;;;;;5051769;28;8955;-81
2022/05/27 03:06:55;;;;;;;;;5.75;5.75;;;;;;;;5075661;28;8882;-82
2022/05/27 03:09:29;;;;;;;;;7.25;5.50;;;;;;;;5069953;28;8884;-82
2022/05/27 03:12:07;;;;;;;;;4.00;4.00;;;;;;;;5070085;28;8871;-81
2022/05/27 03:14:57;;;;;;;;;5.25;4.50;;;;;;;;5069754;28;8872;-81
2022/05/27 03:17:34;;;;;;;;;5.75;4.00;;;;;;;;5068066;28;8865;-81
2022/05/27 03:20:26;;;;;;;;;6.00;4.00;;;;;;;;5071168;28;9277;-81
2022/05/27 03:23:07;;;;;;;;;9.25;4.75;;;;;;;;5070277;28;8862;-82
2022/05/27 03:25:40;;;;;;;;;6.75;6.75;;;;;;;;5051050;28;8885;-82
2022/05/27 03:28:13;;;;;;;;;3.25;3.25;;;;;;;;5050861;28;8850;-82
2022/05/27 03:30:50;;;;;;;;;5.00;5.00;;;;;;;;5072267;28;8797;-81
2022/05/27 03:33:21;;;;;;;;;3.50;3.25;;;;;;;;5073380;28;8903;-80
2022/05/27 03:35:55;;;;;;;;;5.00;5.00;;;;;;;;5049336;28;9472;-81
2022/05/27 03:38:31;;;;;;;;;3.00;3.00;;;;;;;;5074608;28;8889;-81
2022/05/27 03:41:04;;;;;;;;;9.00;5.00;;;;;;;;5074955;28;8933;-82
2022/05/27 03:43:33;;;;;;;;;6.75;6.75;;;;;;;;5068276;28;8904;-83
2022/05/27 03:46:02;;;;;;;;;4.50;4.50;;;;;;;;5072879;28;9629;-81
2022/05/27 03:48:31;;;;;;;;;4.75;4.75;;;;;;;;5065744;28;8859;-81
2022/05/27 03:51:05;;;;;;;;;3.00;3.00;;;;;;;;5075785;28;8998;-81
2022/05/27 03:56:13;;;;;;;;;5.00;3.00;;;;;;;;5061716;28;8876;-81
2022/05/27 03:58:41;;;;;;;;;4.25;3.00;;;;;;;;5054044;28;8981;-81
2022/05/27 04:01:08;;;;;;;;;3.50;3.50;;;;;;;;5073316;28;8799;-82
2022/05/27 04:03:35;;;;;;;;;4.00;2.50;;;;;;;;5068468;28;9009;-82
2022/05/27 04:06:04;;;;;;;;;3.00;3.00;;;;;;;;5071989;28;8870;-81
2022/05/27 04:08:32;;;;;;;;;4.00;4.00;;;;;;;;5069581;28;8905;-81
2022/05/27 04:10:59;;;;;;;;;3.00;3.00;;;;;;;;5071824;28;8890;-81
2022/05/27 04:13:29;;;;;;;;;4.75;4.50;;;;;;;;5073993;28;8896;-82
2022/05/27 04:15:57;;;;;;;;;4.00;4.00;;;;;;;;5058592;28;8862;-82
2022/05/27 04:18:24;;;;;;;;;3.00;3.00;;;;;;;;5074126;28;8866;-81
2022/05/27 04:20:52;;;;;;;;;3.25;2.75;;;;;;;;5040164;28;8900;-80
2022/05/27 04:23:20;;;;;;;;;2.75;2.75;;;;;;;;5050836;28;8876;-80
2022/05/27 04:25:48;;;;;;;;;4.00;4.00;;;;;;;;5078413;28;8870;-81
2022/05/27 04:28:15;;;;;;;;;3.00;3.00;;;;;;;;5076873;28;9489;-81
2022/05/27 04:30:45;;;;;;;;;6.50;3.25;;;;;;;;5075805;28;8814;-81
2022/05/27 04:33:12;;;;;;;;;2.50;2.50;;;;;;;;5075879;28;8881;-81
2022/05/27 04:35:40;;;;;;;;;5.00;3.75;;;;;;;;5060760;28;8901;-81
2022/05/27 04:38:08;;;;;;;;;3.50;2.25;;;;;;;;5079382;28;8884;-81
2022/05/27 04:40:37;;;;;;;;;4.00;4.00;;;;;;;;5076685;28;8940;-82
2022/05/27 04:43:06;;;;;;;;;5.25;4.00;;;;;;;;5077587;28;8932;-82
2022/05/27 04:45:34;;;;;;;;;6.75;4.00;;;;;;;;5078473;28;8873;-82
2022/05/27 04:48:02;;;;;;;;;4.00;4.00;;;;;;;;5083227;28;8870;-82
2022/05/27 04:50:29;;;;;;;;;3.00;3.00;;;;;;;;5079028;28;8874;-82
2022/05/27 04:52:56;;;;;;;;;3.25;3.00;;;;;;;;5079009;28;8898;-81
2022/05/27 04:55:24;;;;;;;;;3.00;3.00;;;;;;;;5058602;28;8947;-80
2022/05/27 04:57:54;;;;;;;;;3.00;3.00;;;;;;;;5061141;28;8908;-80
2022/05/27 05:00:25;;;;;;;;;3.25;3.25;;;;;;;;5078640;28;8924;-80
2022/05/27 05:02:54;;;;;;;;;3.50;3.50;;;;;;;;5077995;28;8915;-81
2022/05/27 05:05:22;;;;;;;;;5.75;4.00;;;;;;;;5079514;28;8893;-81
2022/05/27 05:07:53;;;;;;;;;10.50;5.00;;;;;;;;5077885;28;8858;-82
2022/05/27 05:10:23;;;;;;;;;2.00;2.00;;;;;;;;5075421;28;8887;-82
2022/05/27 05:12:52;;;;;;;;;6.00;4.00;;;;;;;;5073113;28;8858;-82
2022/05/27 05:15:20;;;;;;;;;4.00;4.00;;;;;;;;5078928;28;8853;-82
2022/05/27 05:17:48;;;;;;;;;6.50;4.50;;;;;;;;5077234;28;8874;-82
2022/05/27 05:20:18;;;;;;;;;3.00;3.00;;;;;;;;5075826;28;8888;-82
2022/05/27 05:22:45;;;;;;;;;4.75;4.75;;;;;;;;5078896;28;8847;-80
2022/05/27 05:25:13;;;;;;;;;3.25;3.25;;;;;;;;5078591;28;8861;-82
2022/05/27 05:27:42;;;;;;;;;6.25;4.25;;;;;;;;5074546;28;8873;-81
2022/05/27 05:30:14;;;;;;;;;3.00;3.00;;;;;;;;5076383;28;8881;-82
2022/05/27 05:32:42;;;;;;;;;4.00;4.00;;;;;;;;5073881;28;8866;-82
2022/05/27 05:35:11;;;;;;;;;4.75;3.25;;;;;;;;5079450;28;9070;-82
2022/05/27 05:37:39;;;;;;;;;6.00;3.50;;;;;;;;5075813;28;9996;-81
2022/05/27 05:40:08;;;;;;;;;5.75;4.75;;;;;;;;5078897;28;8885;-82
2022/05/27 05:42:36;;;;;;;;;6.00;3.25;;;;;;;;5075207;28;8878;-83
2022/05/27 05:45:03;;;;;;;;;4.25;3.75;;;;;;;;5078498;28;9588;-81
2022/05/27 05:47:32;;;;;;;;;4.50;3.00;;;;;;;;5080406;28;8909;-81
2022/05/27 05:50:00;;;;;;;;;6.00;3.00;;;;;;;;5077857;28;8889;-81
2022/05/27 05:52:27;;;;;;;;;3.25;3.25;;;;;;;;5077778;28;8862;-81
2022/05/27 05:55:00;;;;;;;;;5.00;3.50;;;;;;;;5056998;28;8911;-82
2022/05/27 05:57:31;;;;;;;;;2.00;2.00;;;;;;;;5076177;28;8892;-83
2022/05/27 06:00:00;;;;;;;;;3.00;3.00;;;;;;;;5075045;28;9025;-79
2022/05/27 06:02:27;;;;;;;;;4.00;4.00;;;;;;;;5084411;28;8840;-78
2022/05/27 06:04:59;;;;;;;;;4.25;4.25;;;;;;;;5072602;28;8905;-78
2022/05/27 06:07:26;;;;;;;;;5.00;4.00;;;;;;;;5053847;28;8858;-74
2022/05/27 06:09:53;;;;;;;;;3.25;3.25;;;;;;;;5055627;28;9466;-75
2022/05/27 06:12:23;;;;;;;;;2.50;2.50;;;;;;;;5071684;28;9101;-75
2022/05/27 06:14:51;;;;;;;;;2.75;2.75;;;;;;;;5080566;28;8862;-74
2022/05/27 06:17:18;;;;;;;;;4.00;4.00;;;;;;;;5072766;28;8876;-74
2022/05/27 06:19:45;;;;;;;;;3.00;2.00;;;;;;;;5078721;28;8878;-73
2022/05/27 06:22:15;;;;;;;;;4.25;3.00;;;;;;;;5079443;28;8846;-74
2022/05/27 06:24:43;;;;;;;;;4.75;4.00;;;;;;;;5075484;28;8908;-73
2022/05/27 06:27:11;;;;;;;;;3.00;3.00;;;;;;;;5076891;28;8862;-74
2022/05/27 06:35:09;;;;;;;;;2.00;2.00;;;;;;;;5079763;28;8969;-73
2022/05/27 06:37:38;;;;;;;;;5.50;4.50;;;;;;;;5073840;28;8897;-74
2022/05/27 06:40:06;;;;;;;;;4.50;4.50;;;;;;;;5076488;28;8858;-74
2022/05/27 06:42:34;;;;;;;;;3.00;3.00;;;;;;;;5072457;28;9045;-73
2022/05/27 06:45:01;;;;;;;;;4.25;4.25;;;;;;;;5076241;28;8870;-75
2022/05/27 06:47:29;;;;;;;;;3.00;2.25;;;;;;;;5071911;28;8884;-75
2022/05/27 06:49:58;;;;;;;;;3.75;3.00;;;;;;;;5077991;28;8971;-73
2022/05/27 06:52:26;;;;;;;;;8.50;5.00;;;;;;;;5067421;28;8882;-73
2022/05/27 06:54:58;;;;;;;;;3.00;3.00;;;;;;;;5078897;28;9753;-75
2022/05/27 06:57:27;;;;;;;;;4.25;4.25;;;;;;;;5074662;28;8838;-75
2022/05/27 06:59:58;;;;;;;;;2.00;2.00;;;;;;;;5072155;28;8997;-74
2022/05/27 07:02:26;;;;;;;;;5.50;3.50;;;;;;;;5071391;28;8812;-74
2022/05/27 07:04:53;;;;;;;;;4.00;4.00;;;;;;;;5064825;28;8885;-74
2022/05/27 07:07:30;;;;;;;;;5.00;3.00;;;;;;;;5056610;28;8869;-73
2022/05/27 07:09:59;;;;;;;;;3.00;3.00;;;;;;;;5075269;28;9772;-73
2022/05/27 07:12:27;;;;;;;;;4.50;3.75;;;;;;;;5073476;28;8870;-73
2022/05/27 07:14:55;;;;;;;;;4.50;4.50;;;;;;;;5074409;28;8878;-74
2022/05/27 07:17:22;;;;;;;;;4.50;4.50;;;;;;;;5073162;28;8852;-74
2022/05/27 07:19:49;;;;;;;;;4.75;4.00;;;;;;;;5075015;28;8866;-74
2022/05/27 07:22:18;;;;;;;;;2.75;2.75;;;;;;;;5072552;28;8867;-73
2022/05/27 07:24:46;;;;;;;;;5.50;4.00;;;;;;;;5073414;28;9611;-73
2022/05/27 07:27:15;;;;;;;;;4.00;4.00;;;;;;;;5067849;28;8872;-73
2022/05/27 07:29:43;;;;;;;;;4.25;4.25;;;;;;;;5074110;28;8954;-73
2022/05/27 07:32:10;;;;;;;;;4.75;4.75;;;;;;;;5071081;28;8899;-74
2022/05/27 07:34:38;;;;;;;;;3.00;3.00;;;;;;;;5073873;28;8847;-76
2022/05/27 07:37:06;;;;;;;;;4.25;4.25;;;;;;;;5075037;28;8862;-75
2022/05/27 07:39:34;;;;;;;;;4.75;4.75;;;;;;;;5056856;28;9619;-74
2022/05/27 07:42:02;;;;;;;;;5.25;4.00;;;;;;;;5073469;28;8951;-73
2022/05/27 07:44:30;;;;;;;;;5.50;4.00;;;;;;;;5052709;28;9735;-74
2022/05/27 07:47:02;;;;;;;;;6.00;4.00;;;;;;;;5076152;28;8886;-74
2022/05/27 07:49:30;;;;;;;;;4.00;4.00;;;;;;;;5071805;28;8874;-75
2022/05/27 07:51:57;;;;;;;;;4.00;4.00;;;;;;;;5080825;28;9018;-74
2022/05/27 07:54:24;;;;;;;;;2.50;2.50;;;;;;;;5073115;28;8880;-74
2022/05/27 07:56:51;;;;;;;;;3.00;2.50;;;;;;;;5053616;28;9016;-74
2022/05/27 07:59:19;;;;;;;;;5.75;3.75;;;;;;;;5071375;28;8854;-75
2022/05/27 08:01:48;;;;;;;;;6.50;4.75;;;;;;;;5054484;28;8823;-73
2022/05/27 08:04:16;;;;;;;;;4.75;3.00;;;;;;;;5075313;28;8855;-77
2022/05/27 08:06:44;;;;;;;;;5.00;3.00;;;;;;;;5074338;28;8984;-74
2022/05/27 08:09:14;;;;;;;;;3.00;2.25;;;;;;;;5077110;28;8854;-75
2022/05/27 08:11:42;;;;;;;;;3.00;3.00;;;;;;;;5077066;28;8854;-75
2022/05/27 08:14:10;;;;;;;;;3.25;3.25;;;;;;;;5071732;28;8850;-75
2022/05/27 08:16:37;;;;;;;;;3.00;3.00;;;;;;;;5053859;28;8846;-75
2022/05/27 08:19:07;;;;;;;;;4.00;4.00;;;;;;;;5072657;28;8866;-75
2022/05/27 08:21:37;;;;;;;;;4.50;4.00;;;;;;;;5056328;28;8862;-75
2022/05/27 08:24:04;;;;;;;;;4.50;3.75;;;;;;;;5055083;28;8974;-75
2022/05/27 08:26:31;;;;;;;;;3.00;3.00;;;;;;;;5072012;28;8854;-74
2022/05/27 08:28:59;;;;;;;;;2.00;2.00;;;;;;;;5068734;28;9327;-75
2022/05/27 08:31:26;;;;;;;;;3.00;2.00;;;;;;;;5073485;28;8834;-75
2022/05/27 08:39:24;;;;;;;;;5.25;3.75;;;;;;;;5070614;28;8969;-75
2022/05/27 08:42:07;;;;;;;;;3.00;3.00;;;;;;;;5066697;28;8896;-75
2022/05/27 08:44:46;;;;;;;;;3.00;3.00;;;;;;;;5067483;28;8870;-74
2022/05/27 08:47:20;;;;;;;;;3.00;3.00;;;;;;;;5070511;28;8862;-74
2022/05/27 08:49:49;;;;;;;;;4.00;4.00;;;;;;;;5069272;28;9000;-74
2022/05/27 08:52:26;;;;;;;;;4.00;4.00;;;;;;;;5068081;28;8895;-74
2022/05/27 08:54:58;;;;;;;;;2.50;2.50;;;;;;;;5068175;28;8889;-74
2022/05/27 09:00:15;;;;;;;;;2.75;1.00;;;;;;;;5050501;28;8962;-75
2022/05/27 09:02:49;;;;;;;;;2.00;2.00;;;;;;;;5069037;28;9703;-75
2022/05/27 09:05:21;;;;;;;;;3.00;3.00;;;;;;;;5069821;28;8874;-75
2022/05/27 09:07:55;;;;;;;;;2.50;2.50;;;;;;;;5069912;28;8938;-77
2022/05/27 09:10:25;;;;;;;;;2.25;2.25;;;;;;;;5069930;28;8955;-80
2022/05/27 09:13:05;;;;;;;;;2.75;2.25;;;;;;;;5067355;28;8871;-76
2022/05/27 09:15:45;;;;;;;;;2.00;2.00;;;;;;;;5068659;28;8937;-74
2022/05/27 09:18:20;;;;;;;;;3.75;3.75;;;;;;;;5069536;28;8834;-74
2022/05/27 09:21:04;;;;;;;;;3.00;3.00;;;;;;;;5070258;28;8985;-75
2022/05/27 09:24:16;;;;;;;;;2.00;2.00;;;;;;;;5076227;28;8955;-78
2022/05/27 09:26:49;;;;;;;;;3.00;3.00;;;;;;;;5069049;28;8851;-81
2022/05/27 09:29:32;;;;;;;;;2.50;2.50;;;;;;;;5065594;28;8935;-75
2022/05/27 09:32:09;;;;;;;;;3.00;3.00;;;;;;;;5068558;28;8816;-76
2022/05/27 09:34:39;;;;;;;;;4.00;4.00;;;;;;;;5067552;28;8977;-78
2022/05/27 09:37:11;;;;;;;;;3.75;3.75;;;;;;;;5070879;28;8874;-75
2022/05/27 09:39:38;;;;;;;;;4.00;4.00;;;;;;;;5071501;28;8961;-75
2022/05/27 09:42:15;;;;;;;;;6.00;4.50;;;;;;;;5070176;28;9009;-76
2022/05/27 09:44:48;;;;;;;;;4.25;3.25;;;;;;;;5070370;28;8834;-76
2022/05/27 09:47:17;;;;;;;;;3.75;3.75;;;;;;;;5072961;28;8872;-76
2022/05/27 09:49:46;;;;;;;;;4.00;4.00;;;;;;;;5071505;28;8846;-76
2022/05/27 09:52:14;;;;;;;;;6.25;6.25;;;;;;;;5068339;28;8852;-78
2022/05/27 09:54:47;;;;;;;;;5.25;5.25;;;;;;;;5071722;28;8858;-78
2022/05/27 09:57:25;;;;;;;;;7.00;7.00;;;;;;;;5070429;28;8812;-77
2022/05/27 09:59:56;;;;;;;;;4.75;4.75;;;;;;;;5070825;28;8867;-77
2022/05/27 10:02:30;;;;;;;;;4.25;4.00;;;;;;;;5055206;28;8789;-74
2022/05/27 10:05:00;;;;;;;;;4.00;4.00;;;;;;;;5051372;28;8851;-75
2022/05/27 10:07:37;;;;;;;;;4.00;4.00;;;;;;;;5074702;28;9741;-77
2022/05/27 10:10:24;;;;;;;;;5.25;5.25;;;;;;;;5070496;28;8852;-77
2022/05/27 10:12:54;;;;;;;;;3.75;3.75;;;;;;;;5074370;28;8890;-76
2022/05/27 10:15:31;;;;;;;;;5.25;5.25;;;;;;;;5072650;28;8856;-76
2022/05/27 10:18:15;;;;;;;;;7.00;5.00;;;;;;;;5074346;28;8880;-76
2022/05/27 10:20:43;;;;;;;;;3.75;3.75;;;;;;;;5073517;28;8850;-76
2022/05/27 10:23:13;;;;;;;;;3.00;3.00;;;;;;;;5071541;28;8859;-78
2022/05/27 10:25:42;;;;;;;;;5.25;5.25;;;;;;;;5071823;28;8908;-78
2022/05/27 10:28:12;;;;;;;;;2.25;2.25;;;;;;;;5072089;28;8896;-76
2022/05/27 10:30:52;;;;;;;;;5.50;4.50;;;;;;;;5076600;28;8846;-77
2022/05/27 10:33:21;;;;;;;;;3.50;3.50;;;;;;;;5076156;28;10491;-76
2022/05/27 10:35:49;;;;;;;;;3.25;3.25;;;;;;;;5070546;28;8907;-79
2022/05/27 10:38:40;;;;;;;;;3.00;3.00;;;;;;;;5073435;28;8864;-77
2022/05/27 10:41:14;;;;;;;;;4.00;4.00;;;;;;;;5073480;28;8890;-76
2022/05/27 10:44:10;;;;;;;;;3.50;3.50;;;;;;;;5078365;28;8921;-76
2022/05/27 10:46:46;;;;;;;;;4.00;4.00;;;;;;;;5076939;28;8848;-76
2022/05/27 10:49:32;;;;;;;;;3.00;3.00;;;;;;;;5069781;28;9886;-76
2022/05/27 10:52:10;;;;;;;;;5.00;2.00;;;;;;;;5068245;28;8880;-75
2022/05/27 10:54:48;;;;;;;;;2.00;2.00;;;;;;;;5074933;28;8855;-75
2022/05/27 11:03:29;;;;;;;;;2.50;2.50;;;;;;;;5076112;28;8824;-78
2022/05/27 11:06:15;;;;;;;;;2.00;2.00;;;;;;;;5065912;28;8952;-76
2022/05/27 11:08:50;;;;;;;;;2.00;2.00;;;;;;;;5071576;28;8860;-75
2022/05/27 11:11:22;;;;;;;;;2.25;1.75;;;;;;;;5077377;28;8944;-76
2022/05/27 11:16:53;;;;;;;;;2.00;2.00;;;;;;;;5073449;28;8827;-74
2022/05/27 11:19:37;;;;;;;;;2.50;2.50;;;;;;;;5071722;28;8918;-79
2022/05/27 11:22:18;;;;;;;;;1.00;1.00;;;;;;;;5070544;28;8862;-76
2022/05/27 11:25:03;;;;;;;;;2.00;2.00;;;;;;;;5067580;28;8867;-77
2022/05/27 11:27:43;;;;;;;;;1.00;1.00;;;;;;;;5071680;28;8880;-75
2022/05/27 11:30:21;;;;;;;;;1.00;1.00;;;;;;;;5055832;28;8853;-76
2022/05/27 11:33:02;;;;;;;;;1.00;1.00;;;;;;;;5071565;28;8871;-76
2022/05/27 11:35:44;;;;;;;;;0.80;0.80;;;;;;;;5075528;28;8890;-76
2022/05/27 11:38:27;;;;;;;;;1.00;1.00;;;;;;;;5072263;28;8844;-76
2022/05/27 11:41:01;;;;;;;;;1.00;1.00;;;;;;;;5072151;28;8991;-78
2022/05/27 11:43:48;;;;;;;;;1.00;1.00;;;;;;;;5070992;28;8863;-74
2022/05/27 11:46:51;;;;;;;;;1.00;1.00;;;;;;;;5051765;28;9004;-76
2022/05/27 11:49:33;;;;;;;;;1.00;1.00;;;;;;;;5057189;28;8881;-75
2022/05/27 11:52:15;;;;;;;;;1.00;1.00;;;;;;;;5054357;28;8838;-75
2022/05/27 11:55:01;;;;;;;;;1.00;1.00;;;;;;;;5047693;28;8881;-74
2022/05/27 11:57:41;;;;;;;;;0.00;0.00;;;;;;;;5028949;28;9070;-75
2022/05/27 12:00:12;;;;;;;;;1.00;1.00;;;;;;;;5056861;28;8849;-76
2022/05/27 12:02:44;;;;;;;;;0.60;0.60;;;;;;;;5051393;28;9636;-75
2022/05/27 12:05:19;;;;;;;;;1.40;0.00;;;;;;;;5052753;28;8883;-75
2022/05/27 12:07:50;;;;;;;;;0.00;0.00;;;;;;;;5042280;28;8988;-75
2022/05/27 12:10:24;;;;;;;;;0.80;0.00;;;;;;;;5047740;28;8901;-73
2022/05/27 12:12:56;;;;;;;;;0.00;0.00;;;;;;;;5046273;28;8899;-75
2022/05/27 12:15:28;;;;;;;;;0.00;0.00;;;;;;;;5049758;28;8858;-75
2022/05/27 12:17:58;;;;;;;;;0.40;0.40;;;;;;;;5061012;28;8841;-75
2022/05/27 12:20:30;;;;;;;;;0.80;0.80;;;;;;;;5055082;28;8894;-73
2022/05/27 12:22:58;;;;;;;;;0.00;0.00;;;;;;;;5049883;28;8886;-73
2022/05/27 12:25:28;;;;;;;;;0.80;0.80;;;;;;;;5051401;28;8866;-73
2022/05/27 12:27:56;;;;;;;;;1.00;1.00;;;;;;;;5050312;28;9629;-74
2022/05/27 12:30:30;;;;;;;;;0.00;0.00;;;;;;;;5049012;28;8808;-74
2022/05/27 12:32:59;;;;;;;;;0.00;0.00;;;;;;;;5043887;28;8881;-75
2022/05/27 12:35:44;;;;;;;;;0.00;0.00;;;;;;;;5030921;28;8853;-78
2022/05/27 12:38:15;;;;;;;;;0.00;0.00;;;;;;;;5051939;28;8882;-78
2022/05/27 12:40:46;;;;;;;;;0.00;0.00;;;;;;;;5053471;28;8865;-78
2022/05/27 12:43:23;;;;;;;;;0.60;0.60;;;;;;;;5051088;28;8862;-78
2022/05/27 12:45:53;;;;;;;;;0.00;0.00;;;;;;;;5049302;28;8842;-79
2022/05/27 12:48:28;;;;;;;;;0.00;0.00;;;;;;;;5054684;28;8856;-77
2022/05/27 12:50:59;;;;;;;;;0.00;0.00;;;;;;;;5051872;28;8886;-76
2022/05/27 12:53:46;;;;;;;;;1.00;0.00;;;;;;;;5055873;28;8866;-76
2022/05/27 13:02:53;;;;;;;;;0.20;0.20;;;;;;;;5052073;28;8828;-73
2022/05/27 13:05:23;;;;;;;;;0.00;0.00;;;;;;;;5051577;28;8861;-75
2022/05/27 13:08:14;;;;;;;;;0.20;0.20;;;;;;;;5052887;28;8888;-75
2022/05/27 13:10:52;;;;;;;;;0.00;0.00;;;;;;;;5053751;28;8867;-73
2022/05/27 13:13:30;;;;;;;;;0.80;0.80;;;;;;;;5050426;28;8992;-80
2022/05/27 13:16:08;;;;;;;;;0.00;0.00;;;;;;;;5046153;28;9305;-79
2022/05/27 13:18:43;;;;;;;;;0.00;0.00;;;;;;;;5052255;28;8891;-81
2022/05/27 13:21:14;;;;;;;;;0.00;0.00;;;;;;;;5047843;28;9610;-74
2022/05/27 13:23:54;;;;;;;;;0.00;0.00;;;;;;;;5047582;28;8872;-73
2022/05/27 13:26:34;;;;;;;;;2.40;0.00;;;;;;;;5051238;28;8858;-73
2022/05/27 13:29:02;;;;;;;;;0.00;0.00;;;;;;;;5049359;28;8892;-75
2022/05/27 13:31:39;;;;;;;;;0.00;0.00;;;;;;;;5046570;28;8805;-74
2022/05/27 13:34:09;;;;;;;;;0.00;0.00;;;;;;;;5045112;28;8868;-74
2022/05/27 13:36:41;;;;;;;;;0.00;0.00;;;;;;;;5052745;28;8872;-75
2022/05/27 13:39:13;;;;;;;;;0.20;0.20;;;;;;;;5050971;28;8866;-74
2022/05/27 13:41:43;;;;;;;;;0.00;0.00;;;;;;;;5053708;28;8862;-74
2022/05/27 13:44:11;;;;;;;;;0.00;0.00;;;;;;;;5059621;28;8848;-73
2022/05/27 13:46:44;;;;;;;;;0.00;0.00;;;;;;;;5070795;28;8858;-73
2022/05/27 13:49:15;;;;;;;;;0.00;0.00;;;;;;;;5070613;28;8935;-74
2022/05/27 13:51:45;;;;;;;;;0.00;0.00;;;;;;;;5066743;28;8848;-74
2022/05/27 13:54:18;;;;;;;;;1.40;0.00;;;;;;;;5071641;28;8906;-73
2022/05/27 13:56:48;;;;;;;;;0.00;0.00;;;;;;;;5076010;28;8874;-72
2022/05/27 13:59:20;;;;;;;;;0.00;0.00;;;;;;;;5077507;28;8864;-78
2022/05/27 14:01:51;;;;;;;;;0.00;0.00;;;;;;;;5067677;28;10043;-74
2022/05/27 14:04:25;;;;;;;;;0.00;0.00;;;;;;;;5068914;28;9551;-74
2022/05/27 14:06:52;;;;;;;;;0.20;0.20;;;;;;;;5071239;28;8870;-74
2022/05/27 14:09:24;;;;;;;;;0.00;0.00;;;;;;;;5072506;28;8868;-75
2022/05/27 14:11:53;;;;;;;;;0.00;0.00;;;;;;;;5077182;28;8910;-75
2022/05/27 14:14:26;;;;;;;;;0.00;0.00;;;;;;;;5075053;28;8866;-74
2022/05/27 14:16:53;;;;;;;;;0.00;0.00;;;;;;;;5074435;28;8874;-75
2022/05/27 14:19:23;;;;;;;;;0.00;0.00;;;;;;;;5076914;28;8900;-74
2022/05/27 14:24:52;;;;;;;;;0.00;0.00;;;;;;;;5080153;28;8851;-76
2022/05/27 14:27:21;;;;;;;;;0.00;0.00;;;;;;;;5075540;28;8874;-74
2022/05/27 14:29:52;;;;;;;;;0.00;0.00;;;;;;;;5078908;28;8901;-74
2022/05/27 14:32:22;;;;;;;;;0.00;0.00;;;;;;;;5073317;28;8827;-75
2022/05/27 14:34:51;;;;;;;;;0.60;0.60;;;;;;;;5053380;28;8859;-74
2022/05/27 14:37:39;;;;;;;;;0.00;0.00;;;;;;;;5083602;28;9032;-74
2022/05/27 14:40:12;;;;;;;;;0.20;0.20;;;;;;;;5056270;28;8966;-75
2022/05/27 14:42:40;;;;;;;;;0.00;0.00;;;;;;;;5079972;28;8870;-74
2022/05/27 14:45:16;;;;;;;;;0.00;0.00;;;;;;;;5083475;28;8887;-74
2022/05/27 14:47:46;;;;;;;;;0.00;0.00;;;;;;;;5077070;28;9467;-75
2022/05/27 14:50:18;;;;;;;;;0.80;0.80;;;;;;;;5072437;28;8896;-74
2022/05/27 14:52:54;;;;;;;;;0.20;0.20;;;;;;;;5074160;28;8960;-76
2022/05/27 14:55:25;;;;;;;;;0.60;0.60;;;;;;;;5079543;28;8882;-75
2022/05/27 14:57:54;;;;;;;;;0.60;0.00;;;;;;;;5070555;28;8866;-75
2022/05/27 15:00:30;;;;;;;;;0.00;0.00;;;;;;;;5054121;28;8947;-76
2022/05/27 15:02:58;;;;;;;;;0.00;0.00;;;;;;;;5077136;28;8870;-75
2022/05/27 15:05:35;;;;;;;;;0.00;0.00;;;;;;;;5071422;28;8955;-76
2022/05/27 15:08:05;;;;;;;;;0.00;0.00;;;;;;;;5078028;28;8877;-76
2022/05/27 15:10:37;;;;;;;;;0.00;0.00;;;;;;;;5080149;28;8914;-75
2022/05/27 15:13:26;;;;;;;;;0.00;0.00;;;;;;;;5080826;28;8888;-76
2022/05/27 15:15:55;;;;;;;;;0.00;0.00;;;;;;;;5072971;28;8941;-76
2022/05/27 15:18:24;;;;;;;;;0.00;0.00;;;;;;;;5078695;28;8874;-78
2022/05/27 15:20:57;;;;;;;;;0.00;0.00;;;;;;;;5074195;28;8869;-76
2022/05/27 15:23:29;;;;;;;;;0.00;0.00;;;;;;;;5079291;28;8890;-76
2022/05/27 15:34:17;;;;;;;;;0.80;0.80;;;;;;;;5060305;28;8949;-74
2022/05/27 15:36:44;;;;;;;;;0.00;0.00;;;;;;;;5055928;28;8970;-75
2022/05/27 15:39:11;;;;;;;;;1.80;0.80;;;;;;;;5079312;28;8950;-74
2022/05/27 15:41:40;;;;;;;;;0.60;0.60;;;;;;;;5079759;28;8961;-74
2022/05/27 15:44:10;;;;;;;;;0.00;0.00;;;;;;;;5079221;28;8865;-74
2022/05/27 15:46:37;;;;;;;;;0.00;0.00;;;;;;;;5076038;28;8862;-74
2022/05/27 15:49:04;;;;;;;;;0.00;0.00;;;;;;;;5075560;28;8861;-74
2022/05/27 15:51:32;;;;;;;;;1.00;1.00;;;;;;;;5075864;28;8888;-74
2022/05/27 15:54:00;;;;;;;;;0.00;0.00;;;;;;;;5077500;28;8981;-75
2022/05/27 15:56:27;;;;;;;;;1.80;1.80;;;;;;;;5082126;28;8949;-75
2022/05/27 15:58:55;;;;;;;;;0.20;0.00;;;;;;;;5072884;28;8866;-74
2022/05/27 16:01:24;;;;;;;;;0.60;0.60;;;;;;;;5074970;28;8840;-75
2022/05/27 16:03:51;;;;;;;;;1.00;1.00;;;;;;;;5062308;28;8868;-75
2022/05/27 16:06:21;;;;;;;;;2.00;0.40;;;;;;;;5075211;28;8880;-75
2022/05/27 16:08:49;;;;;;;;;0.00;0.00;;;;;;;;5058434;28;8877;-75
2022/05/27 16:11:16;;;;;;;;;0.80;0.80;;;;;;;;5075505;28;8912;-76